sensor_id;sensor_type;location;lat;lon;timestamp;temperature;humidity
8459;DHT22;4266;48.816;9.154;2024-01-30T00:01:59;3.30;88.20
8459;DHT22;4266;48.816;9.154;2024-01-30T00:04:24;3.40;87.30
8459;DHT22;4266;48.816;9.154;2024-01-30T00:06:50;3.30;87.60
8459;DHT22;4266;48.816;9.154;2024-01-30T00:09:16;3.20;89.10
8459;DHT22;4266;48.816;9.154;2024-01-30T00:11:41;3.10;89.00
8459;DHT22;4266;48.816;9.154;2024-01-30T00:14:08;3.10;89.80
8459;DHT22;4266;48.816;9.154;2024-01-30T00:16:33;3.10;89.80
8459;DHT22;4266;48.816;9.154;2024-01-30T00:18:59;3.20;89.50
8459;DHT22;4266;48.816;9.154;2024-01-30T00:21:24;3.10;89.40
8459;DHT22;4266;48.816;9.154;2024-01-30T00:23:50;3.00;90.00
8459;DHT22;4266;48.816;9.154;2024-01-30T00:26:15;3.00;90.40
8459;DHT22;4266;48.816;9.154;2024-01-30T00:28:41;3.10;90.60
8459;DHT22;4266;48.816;9.154;2024-01-30T00:31:07;3.10;90.70
8459;DHT22;4266;48.816;9.154;2024-01-30T00:33:32;3.20;90.80
8459;DHT22;4266;48.816;9.154;2024-01-30T00:35:58;3.30;90.80
8459;DHT22;4266;48.816;9.154;2024-01-30T00:38:25;3.50;90.70
8459;DHT22;4266;48.816;9.154;2024-01-30T00:40:50;3.50;90.70
8459;DHT22;4266;48.816;9.154;2024-01-30T00:43:16;3.50;90.40
8459;DHT22;4266;48.816;9.154;2024-01-30T00:45:44;3.50;90.30
8459;DHT22;4266;48.816;9.154;2024-01-30T00:48:10;3.70;90.00
8459;DHT22;4266;48.816;9.154;2024-01-30T00:50:37;3.50;89.50
8459;DHT22;4266;48.816;9.154;2024-01-30T00:53:03;3.50;89.50
8459;DHT22;4266;48.816;9.154;2024-01-30T00:55:28;3.20;90.40
8459;DHT22;4266;48.816;9.154;2024-01-30T00:57:55;3.00;91.50
8459;DHT22;4266;48.816;9.154;2024-01-30T01:00:20;3.00;91.50
8459;DHT22;4266;48.816;9.154;2024-01-30T01:02:46;2.90;92.80
8459;DHT22;4266;48.816;9.154;2024-01-30T01:05:12;2.80;92.70
8459;DHT22;4266;48.816;9.154;2024-01-30T01:07:38;2.90;92.90
8459;DHT22;4266;48.816;9.154;2024-01-30T01:10:04;2.90;92.90
8459;DHT22;4266;48.816;9.154;2024-01-30T01:12:31;2.90;92.90
8459;DHT22;4266;48.816;9.154;2024-01-30T01:14:57;3.10;93.00
8459;DHT22;4266;48.816;9.154;2024-01-30T01:17:23;3.10;93.00
8459;DHT22;4266;48.816;9.154;2024-01-30T01:19:49;3.20;92.80
8459;DHT22;4266;48.816;9.154;2024-01-30T01:22:15;3.10;92.50
8459;DHT22;4266;48.816;9.154;2024-01-30T01:24:40;3.10;92.60
8459;DHT22;4266;48.816;9.154;2024-01-30T01:27:05;3.00;93.30
8459;DHT22;4266;48.816;9.154;2024-01-30T01:29:31;3.00;93.20
8459;DHT22;4266;48.816;9.154;2024-01-30T01:31:56;3.00;93.00
8459;DHT22;4266;48.816;9.154;2024-01-30T01:34:22;3.00;93.30
8459;DHT22;4266;48.816;9.154;2024-01-30T01:36:49;2.80;94.00
8459;DHT22;4266;48.816;9.154;2024-01-30T01:39:14;2.80;94.00
8459;DHT22;4266;48.816;9.154;2024-01-30T01:41:40;2.90;93.60
8459;DHT22;4266;48.816;9.154;2024-01-30T01:44:05;2.90;93.10
8459;DHT22;4266;48.816;9.154;2024-01-30T01:46:32;2.90;93.50
8459;DHT22;4266;48.816;9.154;2024-01-30T01:48:56;2.90;93.70
8459;DHT22;4266;48.816;9.154;2024-01-30T01:51:22;2.90;93.50
8459;DHT22;4266;48.816;9.154;2024-01-30T01:53:47;3.00;93.50
8459;DHT22;4266;48.816;9.154;2024-01-30T01:56:13;3.00;93.30
8459;DHT22;4266;48.816;9.154;2024-01-30T01:58:39;2.70;94.10
8459;DHT22;4266;48.816;9.154;2024-01-30T02:01:05;2.70;94.00
8459;DHT22;4266;48.816;9.154;2024-01-30T02:03:30;2.60;94.20
8459;DHT22;4266;48.816;9.154;2024-01-30T02:05:56;2.60;94.60
8459;DHT22;4266;48.816;9.154;2024-01-30T02:08:22;2.60;94.90
8459;DHT22;4266;48.816;9.154;2024-01-30T02:10:47;2.50;95.00
8459;DHT22;4266;48.816;9.154;2024-01-30T02:13:13;2.50;95.60
8459;DHT22;4266;48.816;9.154;2024-01-30T02:15:38;2.50;95.70
8459;DHT22;4266;48.816;9.154;2024-01-30T02:18:04;2.60;95.70
8459;DHT22;4266;48.816;9.154;2024-01-30T02:20:30;2.60;95.50
8459;DHT22;4266;48.816;9.154;2024-01-30T02:22:56;2.70;95.40
8459;DHT22;4266;48.816;9.154;2024-01-30T02:25:30;2.70;95.40
8459;DHT22;4266;48.816;9.154;2024-01-30T02:27:47;2.60;95.40
8459;DHT22;4266;48.816;9.154;2024-01-30T02:30:13;2.60;95.70
8459;DHT22;4266;48.816;9.154;2024-01-30T02:32:38;2.60;95.80
8459;DHT22;4266;48.816;9.154;2024-01-30T02:35:04;2.70;95.80
8459;DHT22;4266;48.816;9.154;2024-01-30T02:37:30;2.60;95.80
8459;DHT22;4266;48.816;9.154;2024-01-30T02:39:55;2.60;95.80
8459;DHT22;4266;48.816;9.154;2024-01-30T02:42:21;2.60;96.00
8459;DHT22;4266;48.816;9.154;2024-01-30T02:44:47;2.30;96.90
8459;DHT22;4266;48.816;9.154;2024-01-30T02:47:13;2.30;96.90
8459;DHT22;4266;48.816;9.154;2024-01-30T02:49:39;2.40;97.00
8459;DHT22;4266;48.816;9.154;2024-01-30T02:52:05;2.40;96.90
8459;DHT22;4266;48.816;9.154;2024-01-30T02:54:30;2.40;96.90
8459;DHT22;4266;48.816;9.154;2024-01-30T02:56:56;2.40;97.10
8459;DHT22;4266;48.816;9.154;2024-01-30T02:59:21;2.40;97.30
8459;DHT22;4266;48.816;9.154;2024-01-30T03:01:47;2.40;97.60
8459;DHT22;4266;48.816;9.154;2024-01-30T03:04:12;2.40;97.40
8459;DHT22;4266;48.816;9.154;2024-01-30T03:06:38;2.30;97.40
8459;DHT22;4266;48.816;9.154;2024-01-30T03:09:04;2.30;97.70
8459;DHT22;4266;48.816;9.154;2024-01-30T03:11:30;2.30;97.70
8459;DHT22;4266;48.816;9.154;2024-01-30T03:13:55;2.30;97.40
8459;DHT22;4266;48.816;9.154;2024-01-30T03:16:21;2.30;97.30
8459;DHT22;4266;48.816;9.154;2024-01-30T03:18:47;2.40;97.40
8459;DHT22;4266;48.816;9.154;2024-01-30T03:21:13;2.20;97.10
8459;DHT22;4266;48.816;9.154;2024-01-30T03:23:38;2.10;97.10
8459;DHT22;4266;48.816;9.154;2024-01-30T03:26:05;2.00;98.00
8459;DHT22;4266;48.816;9.154;2024-01-30T03:28:31;1.90;98.30
8459;DHT22;4266;48.816;9.154;2024-01-30T03:30:57;1.90;98.30
8459;DHT22;4266;48.816;9.154;2024-01-30T03:33:22;1.80;98.10
8459;DHT22;4266;48.816;9.154;2024-01-30T03:35:48;1.90;99.10
8459;DHT22;4266;48.816;9.154;2024-01-30T03:38:14;1.90;98.80
8459;DHT22;4266;48.816;9.154;2024-01-30T03:40:39;1.90;98.50
8459;DHT22;4266;48.816;9.154;2024-01-30T03:43:05;1.60;98.30
8459;DHT22;4266;48.816;9.154;2024-01-30T03:45:31;1.60;98.30
8459;DHT22;4266;48.816;9.154;2024-01-30T03:47:57;1.50;99.60
8459;DHT22;4266;48.816;9.154;2024-01-30T03:50:22;1.60;99.60
8459;DHT22;4266;48.816;9.154;2024-01-30T03:52:48;1.70;99.20
8459;DHT22;4266;48.816;9.154;2024-01-30T03:55:14;1.70;99.40
8459;DHT22;4266;48.816;9.154;2024-01-30T03:57:39;1.80;99.20
8459;DHT22;4266;48.816;9.154;2024-01-30T04:00:05;1.80;98.60
8459;DHT22;4266;48.816;9.154;2024-01-30T04:02:31;1.80;99.20
8459;DHT22;4266;48.816;9.154;2024-01-30T04:04:57;1.80;99.20
8459;DHT22;4266;48.816;9.154;2024-01-30T04:07:22;1.90;99.10
8459;DHT22;4266;48.816;9.154;2024-01-30T04:09:49;2.00;99.00
8459;DHT22;4266;48.816;9.154;2024-01-30T04:12:14;2.00;99.00
8459;DHT22;4266;48.816;9.154;2024-01-30T04:14:40;1.90;98.80
8459;DHT22;4266;48.816;9.154;2024-01-30T04:17:05;1.90;99.00
8459;DHT22;4266;48.816;9.154;2024-01-30T04:19:31;1.70;99.00
8459;DHT22;4266;48.816;9.154;2024-01-30T04:21:57;1.80;99.40
8459;DHT22;4266;48.816;9.154;2024-01-30T04:24:22;1.80;99.60
8459;DHT22;4266;48.816;9.154;2024-01-30T04:26:48;1.90;99.50
8459;DHT22;4266;48.816;9.154;2024-01-30T04:29:13;1.90;99.50
8459;DHT22;4266;48.816;9.154;2024-01-30T04:31:39;1.90;99.50
8459;DHT22;4266;48.816;9.154;2024-01-30T04:34:04;1.90;99.40
8459;DHT22;4266;48.816;9.154;2024-01-30T04:36:30;1.80;99.60
8459;DHT22;4266;48.816;9.154;2024-01-30T04:38:56;1.70;99.60
8459;DHT22;4266;48.816;9.154;2024-01-30T04:41:21;1.60;99.50
8459;DHT22;4266;48.816;9.154;2024-01-30T04:43:47;1.60;99.80
8459;DHT22;4266;48.816;9.154;2024-01-30T04:46:13;1.60;99.90
8459;DHT22;4266;48.816;9.154;2024-01-30T04:48:39;1.60;99.90
8459;DHT22;4266;48.816;9.154;2024-01-30T04:51:04;1.70;99.90
8459;DHT22;4266;48.816;9.154;2024-01-30T04:53:30;1.70;99.90
8459;DHT22;4266;48.816;9.154;2024-01-30T04:55:55;1.80;99.80
8459;DHT22;4266;48.816;9.154;2024-01-30T04:58:22;1.80;99.40
8459;DHT22;4266;48.816;9.154;2024-01-30T05:00:47;1.80;99.40
8459;DHT22;4266;48.816;9.154;2024-01-30T05:03:14;1.60;99.40
8459;DHT22;4266;48.816;9.154;2024-01-30T05:05:40;1.50;99.90
8459;DHT22;4266;48.816;9.154;2024-01-30T05:08:06;1.30;99.90
8459;DHT22;4266;48.816;9.154;2024-01-30T05:10:32;1.30;99.90
8459;DHT22;4266;48.816;9.154;2024-01-30T05:12:57;1.50;99.90
8459;DHT22;4266;48.816;9.154;2024-01-30T05:15:23;1.60;99.80
8459;DHT22;4266;48.816;9.154;2024-01-30T05:17:49;1.80;99.60
8459;DHT22;4266;48.816;9.154;2024-01-30T05:20:14;1.80;98.50
8459;DHT22;4266;48.816;9.154;2024-01-30T05:22:40;1.80;98.20
8459;DHT22;4266;48.816;9.154;2024-01-30T05:25:06;1.80;98.30
8459;DHT22;4266;48.816;9.154;2024-01-30T05:27:31;1.90;98.40
8459;DHT22;4266;48.816;9.154;2024-01-30T05:29:58;1.90;98.90
8459;DHT22;4266;48.816;9.154;2024-01-30T05:32:23;1.90;98.90
8459;DHT22;4266;48.816;9.154;2024-01-30T05:34:49;1.80;98.90
8459;DHT22;4266;48.816;9.154;2024-01-30T05:37:14;1.70;99.00
8459;DHT22;4266;48.816;9.154;2024-01-30T05:39:41;1.60;99.30
8459;DHT22;4266;48.816;9.154;2024-01-30T05:42:06;1.50;99.30
8459;DHT22;4266;48.816;9.154;2024-01-30T05:44:32;1.60;99.70
8459;DHT22;4266;48.816;9.154;2024-01-30T05:46:57;1.60;99.60
8459;DHT22;4266;48.816;9.154;2024-01-30T05:49:24;1.70;98.80
8459;DHT22;4266;48.816;9.154;2024-01-30T05:51:49;1.70;98.80
8459;DHT22;4266;48.816;9.154;2024-01-30T05:54:15;1.80;98.30
8459;DHT22;4266;48.816;9.154;2024-01-30T05:56:41;1.80;98.30
8459;DHT22;4266;48.816;9.154;2024-01-30T05:59:06;1.80;98.40
8459;DHT22;4266;48.816;9.154;2024-01-30T06:01:33;1.80;98.60
8459;DHT22;4266;48.816;9.154;2024-01-30T06:03:59;1.80;98.60
8459;DHT22;4266;48.816;9.154;2024-01-30T06:06:25;1.80;98.80
8459;DHT22;4266;48.816;9.154;2024-01-30T06:08:50;1.60;98.70
8459;DHT22;4266;48.816;9.154;2024-01-30T06:11:16;1.70;99.30
8459;DHT22;4266;48.816;9.154;2024-01-30T06:13:41;1.80;99.00
8459;DHT22;4266;48.816;9.154;2024-01-30T06:16:10;1.90;98.60
8459;DHT22;4266;48.816;9.154;2024-01-30T06:18:36;1.90;98.20
8459;DHT22;4266;48.816;9.154;2024-01-30T06:21:02;1.90;98.20
8459;DHT22;4266;48.816;9.154;2024-01-30T06:23:27;1.90;98.50
8459;DHT22;4266;48.816;9.154;2024-01-30T06:25:54;1.80;98.60
8459;DHT22;4266;48.816;9.154;2024-01-30T06:28:20;1.90;98.50
8459;DHT22;4266;48.816;9.154;2024-01-30T06:30:46;1.90;98.50
8459;DHT22;4266;48.816;9.154;2024-01-30T06:33:12;1.90;98.10
8459;DHT22;4266;48.816;9.154;2024-01-30T06:35:37;1.90;98.10
8459;DHT22;4266;48.816;9.154;2024-01-30T06:38:03;1.90;97.90
8459;DHT22;4266;48.816;9.154;2024-01-30T06:40:29;1.90;98.30
8459;DHT22;4266;48.816;9.154;2024-01-30T06:42:54;1.90;98.10
8459;DHT22;4266;48.816;9.154;2024-01-30T06:45:20;1.90;98.40
8459;DHT22;4266;48.816;9.154;2024-01-30T06:47:46;1.90;98.40
8459;DHT22;4266;48.816;9.154;2024-01-30T06:50:11;1.90;98.30
8459;DHT22;4266;48.816;9.154;2024-01-30T06:52:38;1.90;98.40
8459;DHT22;4266;48.816;9.154;2024-01-30T06:55:03;1.90;98.40
8459;DHT22;4266;48.816;9.154;2024-01-30T06:57:29;1.80;98.30
8459;DHT22;4266;48.816;9.154;2024-01-30T06:59:55;1.80;98.60
8459;DHT22;4266;48.816;9.154;2024-01-30T07:02:20;1.70;98.70
8459;DHT22;4266;48.816;9.154;2024-01-30T07:04:46;1.60;98.80
8459;DHT22;4266;48.816;9.154;2024-01-30T07:07:12;1.80;99.10
8459;DHT22;4266;48.816;9.154;2024-01-30T07:09:38;1.80;99.10
8459;DHT22;4266;48.816;9.154;2024-01-30T07:12:03;1.90;98.90
8459;DHT22;4266;48.816;9.154;2024-01-30T07:14:29;2.00;98.70
8459;DHT22;4266;48.816;9.154;2024-01-30T07:16:55;2.20;98.60
8459;DHT22;4266;48.816;9.154;2024-01-30T07:19:21;2.20;98.60
8459;DHT22;4266;48.816;9.154;2024-01-30T07:21:46;2.30;98.20
8459;DHT22;4266;48.816;9.154;2024-01-30T07:24:12;2.50;97.80
8459;DHT22;4266;48.816;9.154;2024-01-30T07:26:37;2.60;97.50
8459;DHT22;4266;48.816;9.154;2024-01-30T07:29:03;2.70;96.80
8459;DHT22;4266;48.816;9.154;2024-01-30T07:31:29;2.90;96.70
8459;DHT22;4266;48.816;9.154;2024-01-30T07:33:55;3.90;93.10
8459;DHT22;4266;48.816;9.154;2024-01-30T07:36:21;4.10;92.30
8459;DHT22;4266;48.816;9.154;2024-01-30T07:38:47;4.10;92.30
8459;DHT22;4266;48.816;9.154;2024-01-30T07:41:12;4.30;91.00
8459;DHT22;4266;48.816;9.154;2024-01-30T07:43:38;4.30;90.10
8459;DHT22;4266;48.816;9.154;2024-01-30T07:46:04;4.40;90.00
8459;DHT22;4266;48.816;9.154;2024-01-30T07:48:30;4.40;89.90
8459;DHT22;4266;48.816;9.154;2024-01-30T07:50:55;4.50;89.30
8459;DHT22;4266;48.816;9.154;2024-01-30T07:53:21;4.40;88.90
8459;DHT22;4266;48.816;9.154;2024-01-30T07:55:46;4.10;89.20
8459;DHT22;4266;48.816;9.154;2024-01-30T07:58:12;4.80;86.10
8459;DHT22;4266;48.816;9.154;2024-01-30T08:00:37;4.70;86.70
8459;DHT22;4266;48.816;9.154;2024-01-30T08:03:03;4.90;86.50
8459;DHT22;4266;48.816;9.154;2024-01-30T08:05:29;5.20;84.40
8459;DHT22;4266;48.816;9.154;2024-01-30T08:07:55;5.90;81.60
8459;DHT22;4266;48.816;9.154;2024-01-30T08:10:21;6.00;79.70
8459;DHT22;4266;48.816;9.154;2024-01-30T08:12:46;6.60;76.30
8459;DHT22;4266;48.816;9.154;2024-01-30T08:15:12;6.70;75.60
8459;DHT22;4266;48.816;9.154;2024-01-30T08:17:37;7.40;73.00
8459;DHT22;4266;48.816;9.154;2024-01-30T08:20:03;8.20;70.60
8459;DHT22;4266;48.816;9.154;2024-01-30T08:22:30;8.00;67.80
8459;DHT22;4266;48.816;9.154;2024-01-30T08:24:55;8.90;66.10
8459;DHT22;4266;48.816;9.154;2024-01-30T08:27:21;8.50;63.60
8459;DHT22;4266;48.816;9.154;2024-01-30T08:29:46;8.70;63.10
8459;DHT22;4266;48.816;9.154;2024-01-30T08:32:13;10.50;57.20
8459;DHT22;4266;48.816;9.154;2024-01-30T08:34:39;10.50;57.20
8459;DHT22;4266;48.816;9.154;2024-01-30T08:37:04;11.10;57.00
8459;DHT22;4266;48.816;9.154;2024-01-30T08:39:30;11.70;54.60
8459;DHT22;4266;48.816;9.154;2024-01-30T08:41:56;11.70;53.40
8459;DHT22;4266;48.816;9.154;2024-01-30T08:44:23;12.30;53.20
8459;DHT22;4266;48.816;9.154;2024-01-30T08:46:48;12.40;51.60
8459;DHT22;4266;48.816;9.154;2024-01-30T08:49:16;11.40;51.10
8459;DHT22;4266;48.816;9.154;2024-01-30T08:51:41;11.40;51.10
8459;DHT22;4266;48.816;9.154;2024-01-30T08:54:07;11.40;51.10
8459;DHT22;4266;48.816;9.154;2024-01-30T08:56:32;10.80;51.30
8459;DHT22;4266;48.816;9.154;2024-01-30T08:58:58;10.20;51.80
8459;DHT22;4266;48.816;9.154;2024-01-30T09:01:24;10.40;51.80
8459;DHT22;4266;48.816;9.154;2024-01-30T09:03:49;10.60;51.70
8459;DHT22;4266;48.816;9.154;2024-01-30T09:06:15;11.20;51.20
8459;DHT22;4266;48.816;9.154;2024-01-30T09:08:41;10.90;51.20
8459;DHT22;4266;48.816;9.154;2024-01-30T09:11:13;11.00;51.00
8459;DHT22;4266;48.816;9.154;2024-01-30T09:13:38;12.30;50.50
8459;DHT22;4266;48.816;9.154;2024-01-30T09:16:05;12.80;48.80
8459;DHT22;4266;48.816;9.154;2024-01-30T09:18:31;12.80;48.70
8459;DHT22;4266;48.816;9.154;2024-01-30T09:20:57;12.10;48.60
8459;DHT22;4266;48.816;9.154;2024-01-30T09:23:23;11.20;49.10
8459;DHT22;4266;48.816;9.154;2024-01-30T09:25:48;11.80;49.70
8459;DHT22;4266;48.816;9.154;2024-01-30T09:28:14;11.90;49.10
8459;DHT22;4266;48.816;9.154;2024-01-30T09:30:40;13.00;48.10
8459;DHT22;4266;48.816;9.154;2024-01-30T09:33:06;13.00;48.00
8459;DHT22;4266;48.816;9.154;2024-01-30T09:35:32;14.30;48.10
8459;DHT22;4266;48.816;9.154;2024-01-30T09:37:58;14.90;46.70
8459;DHT22;4266;48.816;9.154;2024-01-30T09:40:24;14.90;46.60
8459;DHT22;4266;48.816;9.154;2024-01-30T09:42:50;13.70;46.40
8459;DHT22;4266;48.816;9.154;2024-01-30T09:45:15;13.30;46.60
8459;DHT22;4266;48.816;9.154;2024-01-30T09:47:42;13.90;46.70
8459;DHT22;4266;48.816;9.154;2024-01-30T09:50:07;13.10;46.40
8459;DHT22;4266;48.816;9.154;2024-01-30T09:52:33;12.40;47.50
8459;DHT22;4266;48.816;9.154;2024-01-30T09:54:59;12.40;47.80
8459;DHT22;4266;48.816;9.154;2024-01-30T09:57:25;13.00;47.10
8459;DHT22;4266;48.816;9.154;2024-01-30T09:59:50;12.80;46.60
8459;DHT22;4266;48.816;9.154;2024-01-30T10:02:16;13.40;46.70
8459;DHT22;4266;48.816;9.154;2024-01-30T10:04:42;14.20;46.60
8459;DHT22;4266;48.816;9.154;2024-01-30T10:07:07;14.10;46.20
8459;DHT22;4266;48.816;9.154;2024-01-30T10:09:33;14.10;45.50
8459;DHT22;4266;48.816;9.154;2024-01-30T10:11:59;12.90;46.40
8459;DHT22;4266;48.816;9.154;2024-01-30T10:14:25;12.90;46.30
8459;DHT22;4266;48.816;9.154;2024-01-30T10:16:51;13.00;46.10
8459;DHT22;4266;48.816;9.154;2024-01-30T10:19:17;13.00;46.10
8459;DHT22;4266;48.816;9.154;2024-01-30T10:21:43;12.90;46.60
8459;DHT22;4266;48.816;9.154;2024-01-30T10:24:09;12.00;46.60
8459;DHT22;4266;48.816;9.154;2024-01-30T10:26:37;12.00;46.60
8459;DHT22;4266;48.816;9.154;2024-01-30T10:29:01;11.70;47.20
8459;DHT22;4266;48.816;9.154;2024-01-30T10:31:26;12.00;47.10
8459;DHT22;4266;48.816;9.154;2024-01-30T10:33:52;12.30;47.40
8459;DHT22;4266;48.816;9.154;2024-01-30T10:36:18;12.70;46.80
8459;DHT22;4266;48.816;9.154;2024-01-30T10:38:43;12.30;47.20
8459;DHT22;4266;48.816;9.154;2024-01-30T10:41:10;11.60;47.90
8459;DHT22;4266;48.816;9.154;2024-01-30T10:43:35;11.60;47.90
8459;DHT22;4266;48.816;9.154;2024-01-30T10:46:16;12.10;48.00
8459;DHT22;4266;48.816;9.154;2024-01-30T10:48:41;11.90;47.80
8459;DHT22;4266;48.816;9.154;2024-01-30T10:51:06;11.40;47.80
8459;DHT22;4266;48.816;9.154;2024-01-30T10:53:32;11.80;48.00
8459;DHT22;4266;48.816;9.154;2024-01-30T10:55:57;11.60;48.40
8459;DHT22;4266;48.816;9.154;2024-01-30T10:58:24;12.00;48.30
8459;DHT22;4266;48.816;9.154;2024-01-30T11:00:50;12.10;47.40
8459;DHT22;4266;48.816;9.154;2024-01-30T11:03:16;12.10;47.30
8459;DHT22;4266;48.816;9.154;2024-01-30T11:05:42;13.00;47.10
8459;DHT22;4266;48.816;9.154;2024-01-30T11:08:12;13.80;46.60
8459;DHT22;4266;48.816;9.154;2024-01-30T11:10:45;13.90;46.20
8459;DHT22;4266;48.816;9.154;2024-01-30T11:13:10;13.80;45.80
8459;DHT22;4266;48.816;9.154;2024-01-30T11:15:37;13.00;46.50
8459;DHT22;4266;48.816;9.154;2024-01-30T11:18:02;12.50;46.70
8459;DHT22;4266;48.816;9.154;2024-01-30T11:20:29;12.30;47.50
8459;DHT22;4266;48.816;9.154;2024-01-30T11:22:55;12.30;47.50
8459;DHT22;4266;48.816;9.154;2024-01-30T11:25:22;12.60;47.60
8459;DHT22;4266;48.816;9.154;2024-01-30T11:27:49;12.60;47.40
8459;DHT22;4266;48.816;9.154;2024-01-30T11:30:29;12.70;47.30
8459;DHT22;4266;48.816;9.154;2024-01-30T11:33:02;13.20;47.10
8459;DHT22;4266;48.816;9.154;2024-01-30T11:35:27;12.90;46.40
8459;DHT22;4266;48.816;9.154;2024-01-30T11:37:52;13.20;46.90
8459;DHT22;4266;48.816;9.154;2024-01-30T11:40:18;12.60;46.90
8459;DHT22;4266;48.816;9.154;2024-01-30T11:42:44;12.20;47.10
8459;DHT22;4266;48.816;9.154;2024-01-30T11:45:09;12.20;46.90
8459;DHT22;4266;48.816;9.154;2024-01-30T11:47:36;12.10;47.20
8459;DHT22;4266;48.816;9.154;2024-01-30T11:50:01;12.20;47.40
8459;DHT22;4266;48.816;9.154;2024-01-30T11:52:27;12.50;47.00
8459;DHT22;4266;48.816;9.154;2024-01-30T11:54:53;12.50;47.00
8459;DHT22;4266;48.816;9.154;2024-01-30T11:57:19;12.40;47.10
8459;DHT22;4266;48.816;9.154;2024-01-30T11:59:45;13.20;47.00
8459;DHT22;4266;48.816;9.154;2024-01-30T12:02:15;13.10;46.80
8459;DHT22;4266;48.816;9.154;2024-01-30T12:04:37;12.70;46.90
8459;DHT22;4266;48.816;9.154;2024-01-30T12:07:03;12.90;46.90
8459;DHT22;4266;48.816;9.154;2024-01-30T12:09:29;12.90;46.80
8459;DHT22;4266;48.816;9.154;2024-01-30T12:11:55;13.10;46.60
8459;DHT22;4266;48.816;9.154;2024-01-30T12:14:22;13.00;46.80
8459;DHT22;4266;48.816;9.154;2024-01-30T12:16:48;12.90;46.70
8459;DHT22;4266;48.816;9.154;2024-01-30T12:19:21;13.10;47.70
8459;DHT22;4266;48.816;9.154;2024-01-30T12:21:40;13.10;47.70
8459;DHT22;4266;48.816;9.154;2024-01-30T12:24:06;13.20;46.60
8459;DHT22;4266;48.816;9.154;2024-01-30T12:26:32;13.30;46.90
8459;DHT22;4266;48.816;9.154;2024-01-30T12:28:58;13.30;46.90
8459;DHT22;4266;48.816;9.154;2024-01-30T12:31:26;13.60;46.90
8459;DHT22;4266;48.816;9.154;2024-01-30T12:33:51;13.70;46.70
8459;DHT22;4266;48.816;9.154;2024-01-30T12:36:17;13.30;46.80
8459;DHT22;4266;48.816;9.154;2024-01-30T12:38:43;14.60;45.80
8459;DHT22;4266;48.816;9.154;2024-01-30T12:41:09;14.60;45.80
8459;DHT22;4266;48.816;9.154;2024-01-30T12:43:35;14.40;46.40
8459;DHT22;4266;48.816;9.154;2024-01-30T12:46:00;14.60;46.00
8459;DHT22;4266;48.816;9.154;2024-01-30T12:48:26;14.70;46.20
8459;DHT22;4266;48.816;9.154;2024-01-30T12:50:52;14.70;46.00
8459;DHT22;4266;48.816;9.154;2024-01-30T12:53:17;15.00;46.20
8459;DHT22;4266;48.816;9.154;2024-01-30T12:55:44;15.30;45.80
8459;DHT22;4266;48.816;9.154;2024-01-30T12:58:10;15.30;45.70
8459;DHT22;4266;48.816;9.154;2024-01-30T13:00:35;15.60;46.40
8459;DHT22;4266;48.816;9.154;2024-01-30T13:03:01;15.30;46.00
8459;DHT22;4266;48.816;9.154;2024-01-30T13:05:27;16.20;46.00
8459;DHT22;4266;48.816;9.154;2024-01-30T13:07:52;16.60;45.80
8459;DHT22;4266;48.816;9.154;2024-01-30T13:10:18;17.30;45.60
8459;DHT22;4266;48.816;9.154;2024-01-30T13:12:44;18.80;44.60
8459;DHT22;4266;48.816;9.154;2024-01-30T13:15:10;18.70;44.50
8459;DHT22;4266;48.816;9.154;2024-01-30T13:17:36;19.70;44.10
8459;DHT22;4266;48.816;9.154;2024-01-30T13:20:03;19.80;43.70
8459;DHT22;4266;48.816;9.154;2024-01-30T13:22:29;18.70;43.40
8459;DHT22;4266;48.816;9.154;2024-01-30T13:24:56;17.50;44.10
8459;DHT22;4266;48.816;9.154;2024-01-30T13:27:21;17.50;43.80
8459;DHT22;4266;48.816;9.154;2024-01-30T13:29:48;16.80;43.90
8459;DHT22;4266;48.816;9.154;2024-01-30T13:32:13;16.70;43.90
8459;DHT22;4266;48.816;9.154;2024-01-30T13:34:39;15.70;44.60
8459;DHT22;4266;48.816;9.154;2024-01-30T13:37:05;15.50;44.70
8459;DHT22;4266;48.816;9.154;2024-01-30T13:39:31;15.50;44.70
8459;DHT22;4266;48.816;9.154;2024-01-30T13:41:58;15.40;44.60
8459;DHT22;4266;48.816;9.154;2024-01-30T13:44:23;15.30;44.60
8459;DHT22;4266;48.816;9.154;2024-01-30T13:46:50;15.60;44.70
8459;DHT22;4266;48.816;9.154;2024-01-30T13:49:15;15.60;44.90
8459;DHT22;4266;48.816;9.154;2024-01-30T13:51:42;14.40;45.30
8459;DHT22;4266;48.816;9.154;2024-01-30T13:54:07;14.40;45.30
8459;DHT22;4266;48.816;9.154;2024-01-30T13:56:33;14.30;45.30
8459;DHT22;4266;48.816;9.154;2024-01-30T13:58:59;14.50;45.30
8459;DHT22;4266;48.816;9.154;2024-01-30T14:01:24;14.50;45.70
8459;DHT22;4266;48.816;9.154;2024-01-30T14:03:50;14.90;45.20
8459;DHT22;4266;48.816;9.154;2024-01-30T14:06:17;14.80;45.50
8459;DHT22;4266;48.816;9.154;2024-01-30T14:08:43;14.80;45.50
8459;DHT22;4266;48.816;9.154;2024-01-30T14:11:09;14.10;45.70
8459;DHT22;4266;48.816;9.154;2024-01-30T14:13:35;14.20;45.70
8459;DHT22;4266;48.816;9.154;2024-01-30T14:16:01;14.20;45.60
8459;DHT22;4266;48.816;9.154;2024-01-30T14:18:26;14.20;45.80
8459;DHT22;4266;48.816;9.154;2024-01-30T14:20:53;14.10;45.90
8459;DHT22;4266;48.816;9.154;2024-01-30T14:23:19;13.90;46.00
8459;DHT22;4266;48.816;9.154;2024-01-30T14:25:46;13.70;46.00
8459;DHT22;4266;48.816;9.154;2024-01-30T14:28:11;13.60;45.90
8459;DHT22;4266;48.816;9.154;2024-01-30T14:30:37;13.40;46.60
8459;DHT22;4266;48.816;9.154;2024-01-30T14:33:03;13.40;47.20
8459;DHT22;4266;48.816;9.154;2024-01-30T14:35:29;13.40;46.60
8459;DHT22;4266;48.816;9.154;2024-01-30T14:37:55;13.10;46.70
8459;DHT22;4266;48.816;9.154;2024-01-30T14:40:21;13.10;47.00
8459;DHT22;4266;48.816;9.154;2024-01-30T14:42:46;12.90;46.90
8459;DHT22;4266;48.816;9.154;2024-01-30T14:45:13;12.90;46.90
8459;DHT22;4266;48.816;9.154;2024-01-30T14:47:39;12.60;47.00
8459;DHT22;4266;48.816;9.154;2024-01-30T14:50:05;12.60;47.00
8459;DHT22;4266;48.816;9.154;2024-01-30T14:52:32;12.60;47.00
8459;DHT22;4266;48.816;9.154;2024-01-30T14:54:57;12.60;46.80
8459;DHT22;4266;48.816;9.154;2024-01-30T14:57:24;12.40;47.30
8459;DHT22;4266;48.816;9.154;2024-01-30T14:59:50;12.40;47.30
8459;DHT22;4266;48.816;9.154;2024-01-30T15:02:15;12.30;47.30
8459;DHT22;4266;48.816;9.154;2024-01-30T15:04:41;12.10;47.20
8459;DHT22;4266;48.816;9.154;2024-01-30T15:07:07;12.00;47.80
8459;DHT22;4266;48.816;9.154;2024-01-30T15:09:32;12.00;48.40
8459;DHT22;4266;48.816;9.154;2024-01-30T15:11:58;12.00;48.50
8459;DHT22;4266;48.816;9.154;2024-01-30T15:14:24;11.80;48.90
8459;DHT22;4266;48.816;9.154;2024-01-30T15:16:49;11.70;48.60
8459;DHT22;4266;48.816;9.154;2024-01-30T15:19:16;11.40;48.20
8459;DHT22;4266;48.816;9.154;2024-01-30T15:21:41;11.40;48.20
8459;DHT22;4266;48.816;9.154;2024-01-30T15:24:07;11.40;48.60
8459;DHT22;4266;48.816;9.154;2024-01-30T15:26:33;11.50;48.70
8459;DHT22;4266;48.816;9.154;2024-01-30T15:28:59;11.50;49.30
8459;DHT22;4266;48.816;9.154;2024-01-30T15:31:25;11.50;49.30
8459;DHT22;4266;48.816;9.154;2024-01-30T15:33:51;11.40;49.20
8459;DHT22;4266;48.816;9.154;2024-01-30T15:36:16;11.30;49.80
8459;DHT22;4266;48.816;9.154;2024-01-30T15:38:42;11.10;49.70
8459;DHT22;4266;48.816;9.154;2024-01-30T15:41:08;11.10;49.60
8459;DHT22;4266;48.816;9.154;2024-01-30T15:43:33;11.10;49.80
8459;DHT22;4266;48.816;9.154;2024-01-30T15:45:59;11.00;50.00
8459;DHT22;4266;48.816;9.154;2024-01-30T15:48:25;10.90;50.00
8459;DHT22;4266;48.816;9.154;2024-01-30T15:50:50;11.00;50.00
8459;DHT22;4266;48.816;9.154;2024-01-30T15:53:16;11.20;49.90
8459;DHT22;4266;48.816;9.154;2024-01-30T15:55:42;11.20;49.90
8459;DHT22;4266;48.816;9.154;2024-01-30T15:58:07;11.00;49.80
8459;DHT22;4266;48.816;9.154;2024-01-30T16:00:33;10.90;50.20